Washington, Nebraska
Current Conditions -  °F | °C
As of 10:15 AM on Saturday 25 Oct 2014 (Local Time) from KBTA Reporting Station
Clear Clear  
Wind Chill: 16°   Ceiling: Unl
Heat Index: 16°   Visibility: 10mi
Dew Point:   Wind: 9mph
Humidity: 51%   Direction: 50°NE
Pressure: 30.12"   Gusts: NA
Location:  41.4°N, 96.21°W
Report Text: KBTA 251515Z AUTO 05008KT 10SM CLR 16/06 A3012 RMK AO2 T01610059
Loading
Personal Weather Stations






























Interactive Weather Map
Tropical Storm Tracking
New forecast layout! Learn more

10-Day Weather Forecast

Advertisements
Track Severe Weather on mobile